Terminal Aerodrome Forecast
Issued by NWS

Home | Current Version | Previous Version | Text Only | Print | Product List | Glossary On
Versions: 1 2 3 4 5 6 7 8 9 10 11 12 13
436
FTUS43 KGRB 091133
TAFMTW
TAF
KMTW 091133Z 0912/1012 32012KT P6SM -SN SCT025 OVC040
      TEMPO 0912/0915 6SM -SN BKN025
     FM091500 32014G22KT P6SM -SN BKN040 OVC080
      TEMPO 0922/1002 4SM -SN BKN025
     FM100600 32014G22KT P6SM BKN040
      TEMPO 1009/1012 SCT040=

USA.gov is the U.S. government's official web portal to all federal, state and local government web resources and services.